Time;durP1;ratioP1;P1;durP2;ratioP2;P2;SDS_P1;SDS_P2;PMS_P1;PMS_P2;Temp;Humidity;BMP_temperature;BMP_pressure;BME280_temperature;BME280_humidity;BME280_pressure;Samples;Min_cycle;Max_cycle;Signal;HPM_P1;HPM_P2
2022/01/14 00:00:13;;;;;;;118.80;22.08;;;3.40;97.50;;;;;;5095762;27;20102;-85
2022/01/14 00:02:40;;;;;;;136.63;21.73;;;3.40;97.50;;;;;;5102250;27;20123;-85
2022/01/14 00:05:07;;;;;;;109.82;21.38;;;3.40;97.50;;;;;;5100547;27;20053;-85
2022/01/14 00:07:34;;;;;;;104.43;20.60;;;3.50;97.50;;;;;;5101217;27;20127;-85
2022/01/14 00:10:01;;;;;;;98.93;21.17;;;3.50;97.50;;;;;;5103015;27;20102;-85
2022/01/14 00:12:36;;;;;;;108.43;21.23;;;3.50;97.60;;;;;;5104156;27;20139;-85
2022/01/14 00:15:23;;;;;;;122.75;20.05;;;3.50;97.60;;;;;;5097446;27;20052;-86
2022/01/14 00:17:53;;;;;;;124.38;22.90;;;3.50;97.50;;;;;;5096961;27;20058;-85
2022/01/14 00:20:21;;;;;;;148.93;22.80;;;3.50;97.50;;;;;;5099686;27;20060;-85
2022/01/14 00:22:48;;;;;;;154.80;23.17;;;3.50;97.50;;;;;;5105213;27;20102;-86
2022/01/14 00:33:35;;;;;;;97.25;20.73;;;3.40;97.50;;;;;;5104622;27;20056;-85
2022/01/14 00:36:03;;;;;;;177.45;25.27;;;3.40;97.50;;;;;;5106209;27;20068;-85
2022/01/14 00:38:29;;;;;;;133.57;23.13;;;3.40;97.50;;;;;;5101917;27;20109;-85
2022/01/14 00:40:56;;;;;;;93.65;20.77;;;3.30;97.50;;;;;;5101873;27;20044;-86
2022/01/14 00:43:23;;;;;;;80.55;19.23;;;3.40;97.50;;;;;;5098078;27;20499;-86
2022/01/14 00:45:51;;;;;;;81.10;20.58;;;3.40;97.60;;;;;;5104005;27;20044;-85
2022/01/14 00:48:20;;;;;;;119.43;21.08;;;3.40;97.50;;;;;;5099358;27;20052;-86
2022/01/14 00:50:46;;;;;;;99.50;20.80;;;3.30;97.50;;;;;;5100560;27;20058;-85
2022/01/14 00:53:16;;;;;;;104.82;22.23;;;3.30;97.50;;;;;;5100308;27;20184;-85
2022/01/14 00:55:50;;;;;;;91.40;20.27;;;3.30;97.50;;;;;;5103089;27;20056;-85
2022/01/14 01:01:03;;;;;;;95.97;20.20;;;3.30;97.40;;;;;;5103605;27;20054;-85
2022/01/14 01:03:30;;;;;;;99.80;21.38;;;3.30;97.40;;;;;;5102541;27;20055;-85
2022/01/14 01:05:56;;;;;;;101.45;21.55;;;3.40;97.40;;;;;;5099095;27;20084;-85
2022/01/14 01:08:26;;;;;;;114.05;23.48;;;3.30;97.40;;;;;;5101496;27;20049;-85
2022/01/14 01:10:53;;;;;;;108.57;23.33;;;3.30;97.30;;;;;;5101508;27;20126;-85
2022/01/14 01:13:33;;;;;;;87.75;22.60;;;3.30;97.30;;;;;;5103240;27;20058;-85
2022/01/14 01:16:00;;;;;;;94.22;21.00;;;3.40;97.40;;;;;;5105208;27;20794;-85
2022/01/14 01:18:28;;;;;;;113.85;22.35;;;3.30;97.30;;;;;;5101667;27;20152;-85
2022/01/14 01:20:59;;;;;;;105.15;21.45;;;3.40;97.30;;;;;;5098310;27;20371;-85
2022/01/14 01:23:26;;;;;;;147.20;23.92;;;3.40;97.30;;;;;;5103569;27;20045;-85
2022/01/14 01:26:00;;;;;;;105.82;22.70;;;3.40;97.30;;;;;;5099556;27;20049;-85
2022/01/14 01:28:27;;;;;;;99.65;21.55;;;3.40;97.30;;;;;;5100840;27;20048;-85
2022/01/14 01:33:26;;;;;;;113.82;21.50;;;3.40;97.30;;;;;;5095761;27;20049;-85
2022/01/14 01:35:53;;;;;;;97.35;21.02;;;3.40;97.20;;;;;;5102522;27;20134;-85
2022/01/14 01:38:20;;;;;;;109.03;21.10;;;3.40;97.20;;;;;;5099063;27;20508;-85
2022/01/14 01:40:48;;;;;;;111.00;23.10;;;3.40;97.30;;;;;;5098522;27;20086;-85
2022/01/14 01:43:19;;;;;;;124.00;22.83;;;3.40;97.30;;;;;;5103520;27;20897;-84
2022/01/14 01:45:47;;;;;;;128.18;22.98;;;3.40;97.30;;;;;;5107712;27;20048;-86
2022/01/14 01:48:17;;;;;;;137.82;24.85;;;3.40;97.30;;;;;;5102328;27;20057;-85
2022/01/14 01:50:46;;;;;;;117.78;22.70;;;3.40;97.30;;;;;;5105566;27;20837;-86
2022/01/14 01:53:13;;;;;;;143.52;23.88;;;3.40;97.30;;;;;;5104406;27;20067;-85
2022/01/14 01:55:42;;;;;;;138.63;24.25;;;3.40;97.30;;;;;;5105692;27;20115;-86
2022/01/14 01:58:17;;;;;;;128.93;23.45;;;3.30;97.30;;;;;;5101718;27;20053;-86
2022/01/14 02:00:47;;;;;;;117.88;21.65;;;3.40;97.40;;;;;;5107310;27;20058;-86
2022/01/14 02:03:16;;;;;;;102.28;22.08;;;3.40;97.50;;;;;;5113808;27;20865;-86
2022/01/14 02:05:46;;;;;;;121.40;23.90;;;3.40;97.40;;;;;;5107280;27;20044;-86
2022/01/14 02:08:13;;;;;;;188.02;25.42;;;3.40;97.40;;;;;;5104459;27;20044;-86
2022/01/14 02:10:40;;;;;;;159.55;23.58;;;3.30;97.40;;;;;;5103830;27;20795;-86
2022/01/14 02:13:09;;;;;;;118.75;22.05;;;3.30;97.30;;;;;;5104552;27;20155;-86
2022/01/14 02:16:00;;;;;;;111.93;20.65;;;3.30;97.50;;;;;;5103350;27;20087;-86
2022/01/14 02:18:37;;;;;;;198.90;24.17;;;3.30;97.50;;;;;;5104966;27;20075;-86
2022/01/14 02:23:56;;;;;;;127.57;21.25;;;3.30;97.40;;;;;;5101979;27;20057;-86
2022/01/14 02:26:23;;;;;;;112.20;20.50;;;3.30;97.40;;;;;;5101134;27;20131;-86
2022/01/14 02:28:50;;;;;;;96.75;21.13;;;3.30;97.40;;;;;;5100896;27;20080;-85
2022/01/14 02:31:17;;;;;;;112.43;19.95;;;3.30;97.40;;;;;;5109237;27;20132;-85
2022/01/14 02:33:46;;;;;;;102.20;20.23;;;3.30;97.30;;;;;;5104017;27;20507;-85
2022/01/14 02:36:13;;;;;;;148.48;22.13;;;3.20;97.30;;;;;;5097842;27;20048;-85
2022/01/14 02:38:44;;;;;;;118.55;21.20;;;3.20;97.20;;;;;;5100742;27;20867;-85
2022/01/14 02:41:11;;;;;;;112.88;19.70;;;3.20;97.20;;;;;;5107296;27;20179;-85
2022/01/14 02:43:38;;;;;;;159.68;21.48;;;3.20;97.20;;;;;;5100786;27;20044;-85
2022/01/14 02:46:06;;;;;;;88.10;19.60;;;3.20;97.20;;;;;;5103408;27;20056;-85
2022/01/14 02:48:33;;;;;;;91.38;19.75;;;3.20;97.30;;;;;;5107148;27;20422;-85
2022/01/14 02:51:07;;;;;;;90.88;20.48;;;3.10;97.30;;;;;;5106385;27;20137;-85
2022/01/14 02:56:06;;;;;;;116.70;20.70;;;3.10;97.20;;;;;;5108053;27;20055;-84
2022/01/14 02:58:36;;;;;;;114.30;20.33;;;3.00;97.10;;;;;;5104045;27;20048;-85
2022/01/14 03:01:06;;;;;;;99.00;21.02;;;3.10;97.20;;;;;;5098355;27;20072;-86
2022/01/14 03:03:33;;;;;;;129.73;21.25;;;3.10;97.20;;;;;;5106875;27;20056;-85
2022/01/14 03:06:05;;;;;;;95.15;20.10;;;3.10;97.10;;;;;;5108164;27;20604;-86
2022/01/14 03:08:33;;;;;;;114.47;20.38;;;3.00;97.10;;;;;;5101647;27;20482;-86
2022/01/14 03:11:07;;;;;;;105.68;21.13;;;3.00;97.20;;;;;;5099014;27;20098;-85
2022/01/14 03:13:35;;;;;;;106.30;21.25;;;3.10;97.20;;;;;;5100599;27;20526;-86
2022/01/14 03:16:05;;;;;;;89.90;19.50;;;3.00;97.20;;;;;;5103368;27;20123;-85
2022/01/14 03:18:45;;;;;;;117.35;21.50;;;3.00;97.30;;;;;;5103281;27;20159;-86
2022/01/14 03:21:14;;;;;;;115.47;21.13;;;3.00;97.30;;;;;;5104860;27;20059;-86
2022/01/14 03:24:01;;;;;;;122.10;21.58;;;3.00;97.40;;;;;;5107433;27;20056;-85
2022/01/14 03:26:29;;;;;;;80.45;19.83;;;3.00;97.40;;;;;;5100268;27;20076;-86
2022/01/14 03:28:56;;;;;;;121.55;22.35;;;3.00;97.40;;;;;;5101639;27;20080;-85
2022/01/14 03:31:22;;;;;;;189.98;25.02;;;3.00;97.30;;;;;;5099211;27;20135;-85
2022/01/14 03:33:49;;;;;;;93.47;21.20;;;3.00;97.40;;;;;;5096088;27;20055;-85
2022/01/14 03:36:16;;;;;;;157.52;23.88;;;3.00;97.40;;;;;;5105309;27;20059;-85
2022/01/14 03:38:45;;;;;;;124.50;21.73;;;3.00;97.40;;;;;;5106463;27;20066;-85
2022/01/14 03:41:12;;;;;;;179.02;24.25;;;3.00;97.40;;;;;;5106601;27;20089;-86
2022/01/14 03:43:45;;;;;;;122.95;22.77;;;3.00;97.40;;;;;;5107388;27;20052;-86
2022/01/14 03:46:12;;;;;;;113.50;21.75;;;3.00;97.40;;;;;;5107602;27;20048;-86
2022/01/14 03:48:39;;;;;;;134.38;25.00;;;3.00;97.40;;;;;;5105492;27;20080;-85
2022/01/14 03:51:06;;;;;;;95.20;21.33;;;3.00;97.50;;;;;;5100580;27;20845;-86
2022/01/14 03:53:33;;;;;;;128.13;22.15;;;3.00;97.50;;;;;;5107142;27;20492;-86
2022/01/14 03:56:00;;;;;;;128.05;22.35;;;3.00;97.50;;;;;;5098228;27;20107;-85
2022/01/14 03:58:43;;;;;;;116.05;23.45;;;3.10;97.50;;;;;;5099609;27;20098;-85
2022/01/14 04:01:18;;;;;;;107.07;22.33;;;3.00;97.50;;;;;;5099927;27;20095;-85
2022/01/14 04:03:47;;;;;;;127.80;23.75;;;3.00;97.50;;;;;;5106611;27;20056;-86
2022/01/14 04:06:17;;;;;;;127.57;24.00;;;3.00;97.50;;;;;;5105000;27;20056;-85
2022/01/14 04:08:50;;;;;;;164.40;24.30;;;3.00;97.50;;;;;;5109509;27;20063;-86
2022/01/14 04:11:17;;;;;;;96.55;21.38;;;3.00;97.50;;;;;;5103254;27;20101;-85
2022/01/14 04:13:50;;;;;;;116.85;21.98;;;3.00;97.50;;;;;;5103386;27;20052;-85
2022/01/14 04:16:18;;;;;;;185.75;24.92;;;3.00;97.50;;;;;;5104153;27;20510;-85
2022/01/14 04:18:49;;;;;;;145.45;24.27;;;3.00;97.50;;;;;;5102165;27;20048;-86
2022/01/14 04:21:17;;;;;;;117.65;22.98;;;3.00;97.50;;;;;;5102803;27;20056;-86
2022/01/14 04:23:47;;;;;;;118.07;23.60;;;3.00;97.60;;;;;;5102133;27;20530;-86
2022/01/14 04:26:19;;;;;;;135.63;23.00;;;3.00;97.60;;;;;;5105866;27;20135;-85
2022/01/14 04:28:46;;;;;;;119.88;21.55;;;3.00;97.50;;;;;;5106907;27;20076;-85
2022/01/14 04:31:13;;;;;;;124.75;24.27;;;3.00;97.50;;;;;;5106310;27;20510;-86
2022/01/14 04:33:43;;;;;;;108.45;21.50;;;3.00;97.50;;;;;;5102233;27;20514;-85
2022/01/14 04:36:13;;;;;;;107.60;22.48;;;3.00;97.50;;;;;;5101545;27;20056;-86
2022/01/14 04:38:41;;;;;;;138.93;22.40;;;3.00;97.60;;;;;;5098445;27;20931;-85
2022/01/14 04:41:09;;;;;;;108.93;22.52;;;3.00;97.60;;;;;;5102283;27;20109;-86
2022/01/14 04:43:36;;;;;;;156.40;24.08;;;3.00;97.50;;;;;;5102940;27;20052;-86
2022/01/14 04:46:35;;;;;;;100.85;21.15;;;3.00;97.50;;;;;;5100717;27;20060;-85
2022/01/14 04:48:49;;;;;;;113.63;21.88;;;3.00;97.60;;;;;;5101497;27;20146;-85
2022/01/14 04:51:19;;;;;;;91.43;22.05;;;3.10;97.60;;;;;;5106614;27;20572;-84
2022/01/14 04:53:46;;;;;;;161.90;24.08;;;3.10;97.60;;;;;;5101151;27;20071;-86
2022/01/14 04:56:13;;;;;;;104.70;22.25;;;3.00;97.50;;;;;;5105005;27;20139;-85
2022/01/14 04:58:42;;;;;;;143.98;22.42;;;3.00;97.60;;;;;;5101570;27;20044;-85
2022/01/14 05:01:09;;;;;;;151.30;20.60;;;3.00;97.60;;;;;;5101083;27;20055;-85
2022/01/14 05:03:36;;;;;;;135.73;23.08;;;3.10;97.70;;;;;;5104576;27;20131;-86
2022/01/14 05:06:05;;;;;;;111.32;21.60;;;3.10;97.60;;;;;;5106668;27;20484;-86
2022/01/14 05:08:39;;;;;;;183.88;25.48;;;3.10;97.60;;;;;;5105079;27;20057;-87
2022/01/14 05:13:42;;;;;;;106.53;21.65;;;3.10;97.60;;;;;;5098867;27;20050;-86
2022/01/14 05:16:09;;;;;;;145.18;22.15;;;3.10;97.60;;;;;;5103011;27;20052;-86
2022/01/14 05:18:38;;;;;;;98.75;20.83;;;3.10;97.60;;;;;;5101539;28;20829;-86
2022/01/14 05:21:05;;;;;;;108.85;21.75;;;3.10;97.60;;;;;;5106625;27;20048;-87
2022/01/14 05:23:33;;;;;;;164.77;21.67;;;3.10;97.50;;;;;;5110201;27;20056;-87
2022/01/14 05:26:00;;;;;;;207.80;26.45;;;3.10;97.50;;;;;;5106505;27;20044;-87
2022/01/14 05:28:27;;;;;;;169.15;23.23;;;3.10;97.50;;;;;;5104891;27;20869;-86
2022/01/14 05:30:54;;;;;;;262.60;28.27;;;3.10;97.40;;;;;;5106135;27;20813;-87
2022/01/14 05:33:21;;;;;;;157.40;21.90;;;3.10;97.40;;;;;;5105285;27;20055;-87
2022/01/14 05:35:47;;;;;;;128.95;22.00;;;3.10;97.40;;;;;;5106126;27;20056;-87
2022/01/14 05:38:17;;;;;;;127.50;21.27;;;3.10;97.40;;;;;;5105293;27;20045;-87
2022/01/14 05:40:46;;;;;;;166.32;23.77;;;3.10;97.40;;;;;;5106634;27;20048;-86
2022/01/14 05:43:13;;;;;;;167.32;22.48;;;3.10;97.50;;;;;;5107097;27;20056;-87
2022/01/14 05:45:40;;;;;;;169.77;23.48;;;3.10;97.50;;;;;;5107723;27;20055;-87
2022/01/14 05:48:09;;;;;;;185.07;22.92;;;3.10;97.50;;;;;;5111650;27;20048;-87
2022/01/14 05:50:36;;;;;;;146.82;21.75;;;3.10;97.60;;;;;;5111224;27;20169;-87
2022/01/14 05:53:02;;;;;;;126.45;21.42;;;3.10;97.50;;;;;;5107755;27;20070;-87
2022/01/14 05:55:29;;;;;;;174.57;24.25;;;3.10;97.60;;;;;;5105681;27;20139;-86
2022/01/14 05:57:58;;;;;;;198.30;25.27;;;3.10;97.60;;;;;;5108144;27;20048;-87
2022/01/14 06:00:25;;;;;;;248.00;28.80;;;3.10;97.50;;;;;;5101815;27;20092;-87
2022/01/14 06:02:52;;;;;;;220.63;26.27;;;3.10;97.60;;;;;;5096962;27;20122;-87
2022/01/14 06:05:19;;;;;;;120.05;22.83;;;3.10;97.60;;;;;;5102132;27;20048;-87
2022/01/14 06:07:53;;;;;;;194.13;25.65;;;3.10;97.60;;;;;;5108508;27;20056;-87
2022/01/14 06:10:22;;;;;;;214.07;28.25;;;3.10;97.60;;;;;;5103190;27;20051;-87
2022/01/14 06:12:52;;;;;;;169.70;25.85;;;3.10;97.60;;;;;;5099442;27;20055;-87
2022/01/14 06:15:19;;;;;;;118.30;24.67;;;3.10;97.60;;;;;;5099295;27;20052;-86
2022/01/14 06:17:46;;;;;;;114.65;22.58;;;3.10;97.60;;;;;;5101179;27;20124;-87
2022/01/14 06:20:12;;;;;;;123.75;22.05;;;3.10;97.60;;;;;;5103013;27;20359;-87
2022/01/14 06:22:41;;;;;;;150.88;24.23;;;3.10;97.70;;;;;;5106208;27;20056;-84
2022/01/14 06:25:11;;;;;;;87.72;20.83;;;3.10;97.60;;;;;;5108134;27;20060;-85
2022/01/14 06:27:41;;;;;;;71.03;19.42;;;3.10;97.60;;;;;;5099082;27;20048;-85
2022/01/14 06:30:23;;;;;;;144.48;23.63;;;3.20;97.60;;;;;;5105443;27;20098;-85
2022/01/14 06:32:53;;;;;;;71.25;19.98;;;3.20;97.70;;;;;;5105336;27;20048;-84
2022/01/14 06:35:31;;;;;;;95.82;20.55;;;3.20;97.60;;;;;;5103727;27;20663;-88
2022/01/14 06:38:01;;;;;;;99.82;21.10;;;3.20;97.60;;;;;;5102802;27;20055;-86
2022/01/14 06:40:38;;;;;;;86.50;20.42;;;3.20;97.50;;;;;;5096942;27;20057;-86
2022/01/14 06:43:07;;;;;;;69.40;20.50;;;3.10;97.50;;;;;;5101011;27;20051;-86
2022/01/14 06:45:49;;;;;;;156.30;24.15;;;3.10;97.40;;;;;;5102749;27;20041;-86
2022/01/14 06:48:34;;;;;;;104.60;21.27;;;3.10;97.40;;;;;;5087637;27;20119;-86
2022/01/14 06:51:15;;;;;;;;;;;;;;;;;;;;;
2022/01/14 06:53:47;;;;;;;121.78;21.33;;;3.10;97.50;;;;;;5104365;27;20092;-86
2022/01/14 06:56:38;;;;;;;70.80;18.77;;;3.10;97.40;;;;;;5074393;27;20893;-86
2022/01/14 06:59:19;;;;;;;94.97;20.90;;;3.10;97.40;;;;;;5102691;28;20052;-85
2022/01/14 07:02:00;;;;;;;81.35;18.98;;;3.10;97.40;;;;;;5103826;27;20060;-86
2022/01/14 07:04:39;;;;;;;76.85;18.80;;;3.10;97.40;;;;;;5104546;28;20071;-86
2022/01/14 07:07:12;;;;;;;63.97;18.48;;;3.10;97.40;;;;;;5105493;27;20044;-86
2022/01/14 07:09:58;;;;;;;74.47;19.48;;;3.10;97.40;;;;;;5101750;27;20052;-85
2022/01/14 07:12:44;;;;;;;95.25;20.42;;;3.00;97.40;;;;;;5099989;27;20924;-85
2022/01/14 07:15:17;;;;;;;67.63;18.42;;;3.10;97.40;;;;;;5103694;27;20059;-86
2022/01/14 07:17:45;;;;;;;87.50;17.35;;;3.10;97.40;;;;;;5101559;27;20068;-86
2022/01/14 07:20:20;;;;;;;93.93;20.45;;;3.10;97.30;;;;;;5104776;27;20040;-87
2022/01/14 07:22:48;;;;;;;53.60;17.33;;;3.00;97.20;;;;;;5102858;27;20806;-86
2022/01/14 07:25:21;;;;;;;55.85;17.55;;;3.00;97.20;;;;;;5104394;27;20060;-86
2022/01/14 07:27:51;;;;;;;48.42;17.05;;;3.00;97.30;;;;;;5102582;27;20141;-86
2022/01/14 07:30:20;;;;;;;50.50;16.80;;;3.00;97.30;;;;;;5106751;27;20067;-86
2022/01/14 07:33:17;;;;;;;52.95;17.55;;;3.10;97.30;;;;;;5102856;27;20052;-86
2022/01/14 07:35:46;;;;;;;45.88;16.67;;;3.00;97.30;;;;;;5106293;27;20576;-86
2022/01/14 07:38:26;;;;;;;49.22;16.67;;;3.10;97.20;;;;;;5106044;27;20041;-85
2022/01/14 07:40:59;;;;;;;37.25;14.68;;;3.10;97.10;;;;;;5100582;27;20507;-86
2022/01/14 07:43:35;;;;;;;42.13;15.30;;;3.10;97.10;;;;;;5100317;27;20048;-86
2022/01/14 07:46:10;;;;;;;45.88;15.73;;;3.10;97.00;;;;;;5103693;27;20048;-86
2022/01/14 07:48:58;;;;;;;51.30;15.93;;;3.10;96.90;;;;;;5098668;27;20053;-86
2022/01/14 07:51:33;;;;;;;37.47;15.02;;;3.10;97.00;;;;;;5107859;27;20048;-87
2022/01/14 07:54:05;;;;;;;47.28;15.73;;;3.10;96.90;;;;;;5102441;27;20121;-86
2022/01/14 07:57:03;;;;;;;40.38;14.98;;;3.10;96.90;;;;;;5098652;27;20810;-86
2022/01/14 07:59:45;;;;;;;43.67;15.30;;;3.10;96.90;;;;;;5106370;27;20828;-87
2022/01/14 08:02:22;;;;;;;43.72;15.77;;;3.10;96.90;;;;;;5105150;28;20059;-86
2022/01/14 08:05:01;;;;;;;46.13;16.40;;;3.10;96.90;;;;;;5105169;27;20825;-86
2022/01/14 08:07:45;;;;;;;50.08;15.93;;;3.10;96.90;;;;;;5101018;27;20186;-86
2022/01/14 08:10:16;;;;;;;41.65;15.35;;;3.10;97.00;;;;;;5095923;27;20063;-86
2022/01/14 08:13:01;;;;;;;49.30;16.75;;;3.10;97.00;;;;;;5103330;27;20048;-86
2022/01/14 08:15:36;;;;;;;39.22;15.68;;;3.10;97.10;;;;;;5098118;27;20940;-86
2022/01/14 08:18:06;;;;;;;42.55;16.02;;;3.20;97.10;;;;;;5103600;27;20056;-85
2022/01/14 08:20:36;;;;;;;41.65;16.13;;;3.20;97.00;;;;;;5098935;27;20040;-86
2022/01/14 08:23:12;;;;;;;41.85;15.52;;;3.20;97.00;;;;;;5093691;27;20057;-86
2022/01/14 08:25:47;;;;;;;44.17;15.63;;;3.20;97.00;;;;;;5099900;28;20044;-86
2022/01/14 08:28:48;;;;;;;45.95;15.73;;;3.20;96.90;;;;;;5104606;27;20051;-86
2022/01/14 08:31:39;;;;;;;;;;;;;;;;;;;;;
2022/01/14 08:34:06;;;;;;;35.38;15.20;;;3.30;96.90;;;;;;5106844;27;20059;-86
2022/01/14 08:36:57;;;;;;;42.22;15.77;;;3.30;96.80;;;;;;5104314;27;20052;-86
2022/01/14 08:39:44;;;;;;;41.35;15.82;;;3.30;96.80;;;;;;5098549;27;21012;-86
2022/01/14 08:46:02;;;;;;;38.33;15.52;;;3.30;96.70;;;;;;5080421;27;20055;-86
2022/01/14 08:52:41;;;;;;;45.72;16.17;;;3.30;96.80;;;;;;5089455;27;20805;-86
2022/01/14 08:55:16;;;;;;;35.53;15.57;;;3.40;96.70;;;;;;5095615;27;20048;-86
2022/01/14 08:57:49;;;;;;;43.85;16.38;;;3.40;96.60;;;;;;5103619;27;20135;-85
2022/01/14 09:00:39;;;;;;;43.60;16.75;;;3.40;96.70;;;;;;5103392;27;20184;-85
2022/01/14 09:03:13;;;;;;;41.92;16.23;;;3.50;96.70;;;;;;5101040;28;20522;-85
2022/01/14 09:05:57;;;;;;;35.25;15.90;;;3.40;96.50;;;;;;5114039;27;20798;-85
2022/01/14 09:08:38;;;;;;;48.97;16.77;;;3.50;96.60;;;;;;5100151;27;20048;-85
2022/01/14 09:11:18;;;;;;;42.35;16.35;;;3.50;96.60;;;;;;5095994;27;20064;-85
2022/01/14 09:13:55;;;;;;;46.60;17.52;;;3.60;96.60;;;;;;5101414;27;20893;-85
2022/01/14 09:16:23;;;;;;;44.20;17.02;;;3.60;96.70;;;;;;5104461;27;20076;-86
2022/01/14 09:19:05;;;;;;;45.97;18.50;;;3.60;96.60;;;;;;5097093;27;20083;-85
2022/01/14 09:21:52;;;;;;;52.90;17.98;;;3.60;96.60;;;;;;5097247;27;20059;-85
2022/01/14 09:24:49;;;;;;;37.08;16.90;;;3.60;96.60;;;;;;5110874;27;20159;-86
2022/01/14 09:27:21;;;;;;;38.10;16.20;;;3.70;96.60;;;;;;5108629;27;20048;-85
2022/01/14 09:29:54;;;;;;;41.42;16.52;;;3.70;96.60;;;;;;5110040;27;20893;-86
2022/01/14 09:32:24;;;;;;;42.22;17.08;;;3.70;96.50;;;;;;5099559;27;20052;-85
2022/01/14 09:35:03;;;;;;;39.00;16.35;;;3.70;96.50;;;;;;5104240;27;20052;-86
2022/01/14 09:37:36;;;;;;;34.33;16.90;;;3.70;96.50;;;;;;5098551;27;20044;-85
2022/01/14 09:40:27;;;;;;;37.13;16.48;;;3.70;96.40;;;;;;5105651;27;20036;-86
2022/01/14 09:43:31;;;;;;;42.65;17.58;;;3.70;96.40;;;;;;5114068;27;20772;-85
2022/01/14 09:46:01;;;;;;;;;;;3.80;96.30;;;;;;5100543;27;20036;-86
2022/01/14 09:48:38;;;;;;;38.78;15.52;;;3.80;96.20;;;;;;5098108;27;19935;-85
2022/01/14 09:51:08;;;;;;;35.97;16.88;;;3.80;96.20;;;;;;5102716;27;20052;-85
2022/01/14 09:53:40;;;;;;;;;;;3.80;96.10;;;;;;5105402;27;20048;-86
2022/01/14 09:56:10;;;;;;;34.70;15.13;;;3.90;96.10;;;;;;5104430;27;19933;-86
2022/01/14 09:58:49;;;;;;;33.90;15.85;;;3.90;96.00;;;;;;5102646;27;20049;-86
2022/01/14 10:01:36;;;;;;;35.08;15.90;;;3.80;95.80;;;;;;5102899;27;20057;-86
2022/01/14 10:04:23;;;;;;;28.13;15.20;;;3.80;95.70;;;;;;5089472;27;20064;-87
2022/01/14 10:07:08;;;;;;;31.73;16.55;;;3.90;95.70;;;;;;5098469;27;20045;-87
2022/01/14 10:09:38;;;;;;;34.45;15.05;;;3.90;95.50;;;;;;5104726;27;20577;-87
2022/01/14 10:12:30;;;;;;;35.13;16.85;;;3.90;95.50;;;;;;5100934;27;20056;-86
2022/01/14 10:15:19;;;;;;;37.85;16.05;;;4.00;95.70;;;;;;5100867;27;20048;-87
2022/01/14 10:18:01;;;;;;;30.73;15.68;;;4.00;95.70;;;;;;5097327;28;20052;-86
2022/01/14 10:20:37;;;;;;;33.00;16.73;;;4.10;95.70;;;;;;5105149;27;20074;-85
2022/01/14 10:23:04;;;;;;;32.70;15.52;;;4.10;95.70;;;;;;5104905;27;20048;-86
2022/01/14 10:25:33;;;;;;;29.02;15.70;;;4.20;95.70;;;;;;5112972;27;20867;-86
2022/01/14 10:28:17;;;;;;;29.70;15.93;;;4.20;95.60;;;;;;5111609;27;20055;-85
2022/01/14 10:30:49;;;;;;;36.80;16.58;;;4.20;95.30;;;;;;5097324;27;20598;-86
2022/01/14 10:33:26;;;;;;;30.95;15.90;;;4.30;95.40;;;;;;5102802;27;20198;-86
2022/01/14 10:35:56;;;;;;;28.65;16.58;;;4.20;95.20;;;;;;5093963;27;20055;-86
2022/01/14 10:38:40;;;;;;;31.27;16.23;;;4.30;95.30;;;;;;5097098;27;20052;-86
2022/01/14 10:41:19;;;;;;;35.15;16.70;;;4.40;95.40;;;;;;5096839;27;20168;-86
2022/01/14 10:43:45;;;;;;;30.27;16.45;;;4.40;95.40;;;;;;5093111;27;20541;-86
2022/01/14 10:46:28;;;;;;;29.67;15.85;;;4.50;95.40;;;;;;5101054;27;20048;-86
2022/01/14 10:48:57;;;;;;;28.05;16.15;;;4.50;95.40;;;;;;5101388;27;20052;-86
2022/01/14 10:51:29;;;;;;;29.70;16.25;;;4.60;95.20;;;;;;5095742;27;20052;-86
2022/01/14 10:54:05;;;;;;;33.80;16.20;;;4.50;94.50;;;;;;5095769;27;20898;-86
2022/01/14 10:56:32;;;;;;;35.28;17.00;;;4.50;94.60;;;;;;5095897;27;20143;-86
2022/01/14 10:59:10;;;;;;;33.03;16.58;;;4.50;95.00;;;;;;5099906;27;20178;-86
2022/01/14 11:01:41;;;;;;;34.85;17.33;;;4.60;95.10;;;;;;5104423;27;20048;-86
2022/01/14 11:04:24;;;;;;;30.67;17.00;;;4.60;95.00;;;;;;5096323;27;20437;-86
2022/01/14 11:07:03;;;;;;;34.25;16.88;;;4.60;95.00;;;;;;5105420;27;20072;-86
2022/01/14 11:09:33;;;;;;;39.90;17.83;;;4.70;95.00;;;;;;5099104;27;20056;-86
2022/01/14 11:12:04;;;;;;;30.30;16.40;;;4.70;94.90;;;;;;5096899;27;20055;-86
2022/01/14 11:14:35;;;;;;;31.00;16.13;;;4.70;94.80;;;;;;5100910;28;20477;-86
2022/01/14 11:17:08;;;;;;;32.83;16.92;;;4.70;94.80;;;;;;5096684;27;20052;-86
2022/01/14 11:19:56;;;;;;;36.33;17.08;;;4.80;94.80;;;;;;5096732;27;20052;-86
2022/01/14 11:25:17;;;;;;;27.77;16.13;;;4.70;94.30;;;;;;5095904;28;20143;-86
2022/01/14 11:28:00;;;;;;;31.80;17.05;;;4.70;94.20;;;;;;5095304;27;20799;-86
2022/01/14 11:30:39;;;;;;;32.97;17.52;;;4.70;94.20;;;;;;5099836;27;20880;-86
2022/01/14 11:33:11;;;;;;;32.97;16.42;;;4.80;94.40;;;;;;5096878;27;20048;-86
2022/01/14 11:36:00;;;;;;;28.77;16.33;;;4.90;94.60;;;;;;5099366;27;20046;-86
2022/01/14 11:39:02;;;;;;;32.35;17.23;;;4.90;94.40;;;;;;5106619;28;20052;-85
2022/01/14 11:42:12;;;;;;;28.35;16.92;;;4.90;94.40;;;;;;5103858;27;20056;-86
2022/01/14 11:44:58;;;;;;;30.02;16.38;;;5.00;94.50;;;;;;5095576;27;20048;-85
2022/01/14 11:47:29;;;;;;;33.15;17.05;;;5.00;94.60;;;;;;5097621;27;20809;-86
2022/01/14 11:50:00;;;;;;;28.00;16.23;;;5.00;94.40;;;;;;5095173;27;20499;-86
2022/01/14 11:52:42;;;;;;;33.78;17.40;;;5.10;94.20;;;;;;5102239;27;20058;-86
2022/01/14 11:55:21;;;;;;;28.95;16.27;;;5.10;94.10;;;;;;5107372;27;20422;-86
2022/01/14 11:57:52;;;;;;;32.58;16.73;;;5.10;94.20;;;;;;5095608;27;20106;-86
2022/01/14 12:00:25;;;;;;;29.23;16.63;;;5.10;94.20;;;;;;5094454;27;20059;-85
2022/01/14 12:03:15;;;;;;;33.07;17.00;;;5.10;94.10;;;;;;5095270;27;20095;-86
2022/01/14 12:06:05;;;;;;;33.75;17.63;;;5.20;94.10;;;;;;5099144;27;20057;-86
2022/01/14 12:08:42;;;;;;;29.10;16.33;;;5.20;93.90;;;;;;5099028;28;20052;-86
2022/01/14 12:11:09;;;;;;;30.35;17.75;;;5.10;93.90;;;;;;5108009;28;20165;-86
2022/01/14 12:13:50;;;;;;;29.95;17.58;;;5.20;94.20;;;;;;5092647;28;20052;-85
2022/01/14 12:16:35;;;;;;;31.02;17.70;;;5.20;94.10;;;;;;5096291;27;20835;-86
2022/01/14 12:19:09;;;;;;;34.47;17.27;;;5.20;93.40;;;;;;5098098;27;20139;-86
2022/01/14 12:21:53;;;;;;;34.33;17.08;;;5.10;93.50;;;;;;5098525;27;20106;-86
2022/01/14 12:24:31;;;;;;;37.03;17.63;;;5.20;93.80;;;;;;5104294;27;20088;-86
2022/01/14 12:27:04;;;;;;;37.83;17.63;;;5.30;93.90;;;;;;5094425;27;20495;-85
2022/01/14 12:29:42;;;;;;;37.47;18.15;;;5.30;93.80;;;;;;5099726;27;20049;-86
2022/01/14 12:32:30;;;;;;;34.03;17.88;;;5.30;93.40;;;;;;5097332;27;20052;-86
2022/01/14 12:34:57;;;;;;;31.85;17.33;;;5.30;93.70;;;;;;5090890;27;20446;-86
2022/01/14 12:38:00;;;;;;;33.25;17.85;;;5.40;93.80;;;;;;5097895;27;20937;-86
2022/01/14 12:40:36;;;;;;;33.65;17.90;;;5.40;93.40;;;;;;5058727;28;20056;-86
2022/01/14 12:43:13;;;;;;;33.20;17.10;;;5.40;93.70;;;;;;5101412;27;20052;-85
2022/01/14 12:49:06;;;;;;;35.30;17.83;;;5.40;93.40;;;;;;5047456;28;20050;-86
2022/01/14 12:51:37;;;;;;;31.73;17.85;;;5.40;93.30;;;;;;5047476;28;20058;-86
2022/01/14 12:54:18;;;;;;;43.90;19.02;;;5.50;93.40;;;;;;5048242;28;20045;-86
2022/01/14 12:57:11;;;;;;;33.95;18.77;;;5.50;93.20;;;;;;5048412;28;20177;-85
2022/01/14 12:59:47;;;;;;;35.08;17.67;;;5.40;92.80;;;;;;5046276;28;20056;-86
2022/01/14 13:02:31;;;;;;;34.53;18.52;;;5.40;93.20;;;;;;5048324;28;20080;-86
2022/01/14 13:05:26;;;;;;;33.70;18.20;;;5.50;93.50;;;;;;5048043;28;20517;-86
2022/01/14 13:08:09;;;;;;;37.03;18.88;;;5.50;93.10;;;;;;5028087;28;20248;-86
2022/01/14 13:10:37;;;;;;;33.70;18.25;;;5.60;93.40;;;;;;5030971;28;20072;-86
2022/01/14 13:13:25;;;;;;;35.00;18.92;;;5.70;93.40;;;;;;5031735;28;20054;-85
2022/01/14 13:16:07;;;;;;;33.70;18.58;;;5.60;92.90;;;;;;5027729;28;21001;-86
2022/01/14 13:18:49;;;;;;;34.20;18.92;;;5.60;92.50;;;;;;5030796;28;20050;-86
2022/01/14 13:21:22;;;;;;;31.52;17.90;;;5.70;93.10;;;;;;5043887;28;20049;-86
2022/01/14 13:23:54;;;;;;;31.73;17.58;;;5.60;92.50;;;;;;5045811;28;20092;-86
2022/01/14 13:26:21;;;;;;;34.50;19.48;;;5.70;93.00;;;;;;5075725;27;20045;-86
2022/01/14 13:28:59;;;;;;;45.88;19.05;;;5.70;93.30;;;;;;5104028;27;20063;-86
2022/01/14 13:31:27;;;;;;;36.35;19.13;;;5.70;92.70;;;;;;5101562;27;20059;-85
2022/01/14 13:33:57;;;;;;;31.35;18.63;;;5.70;93.10;;;;;;5091258;27;20053;-86
2022/01/14 13:36:34;;;;;;;30.98;17.92;;;5.70;92.70;;;;;;5097663;27;20052;-85
2022/01/14 13:39:27;;;;;;;33.50;18.00;;;5.70;92.60;;;;;;5103548;27;20489;-86
2022/01/14 13:42:07;;;;;;;34.88;18.70;;;5.70;92.90;;;;;;5094639;27;20037;-86
2022/01/14 13:44:37;;;;;;;37.05;19.30;;;5.70;92.40;;;;;;5101921;27;20139;-86